createdAt,value
2017-09-26T00:00:03.080Z,0
2017-09-26T00:05:03.022Z,0
2017-09-26T00:15:03.270Z,0
2017-09-26T00:20:02.783Z,0
2017-09-26T00:25:03.275Z,0
2017-09-26T00:30:02.864Z,0
2017-09-26T00:35:03.351Z,0
2017-09-26T00:40:02.933Z,0
2017-09-26T00:45:03.373Z,0
2017-09-26T00:50:02.740Z,0
2017-09-26T00:55:03.244Z,0
2017-09-26T01:00:02.785Z,0
2017-09-26T01:05:03.286Z,0
2017-09-26T01:10:02.768Z,0
2017-09-26T01:15:03.260Z,0
2017-09-26T01:20:02.736Z,0
2017-09-26T01:25:03.271Z,0
2017-09-26T01:30:02.684Z,0
2017-09-26T01:35:03.082Z,0
2017-09-26T01:40:02.547Z,0
2017-09-26T01:45:03.086Z,0
2017-09-26T01:50:02.527Z,0
2017-09-26T01:55:03.402Z,0
2017-09-26T02:00:02.915Z,0
2017-09-26T02:05:03.314Z,0
2017-09-26T02:10:02.734Z,0
2017-09-26T02:15:03.194Z,0
2017-09-26T02:20:02.593Z,0
2017-09-26T02:25:03.013Z,0
2017-09-26T02:30:02.475Z,0
2017-09-26T02:35:02.983Z,0
2017-09-26T02:40:02.470Z,0
2017-09-26T02:45:03.021Z,0
2017-09-26T02:50:02.563Z,0
2017-09-26T02:55:03.016Z,0
2017-09-26T03:00:02.535Z,0
2017-09-26T03:05:02.900Z,0
2017-09-26T03:10:03.372Z,0
2017-09-26T03:15:02.873Z,0
2017-09-26T03:20:03.352Z,0
2017-09-26T03:25:02.842Z,0
2017-09-26T03:30:03.354Z,0
2017-09-26T03:35:02.846Z,0
2017-09-26T03:40:03.322Z,0
2017-09-26T03:45:02.806Z,0
2017-09-26T03:50:03.292Z,0
2017-09-26T03:55:02.627Z,0
2017-09-26T04:00:03.058Z,0
2017-09-26T04:05:02.474Z,0
2017-09-26T04:15:02.632Z,0
2017-09-26T04:20:03.192Z,0
2017-09-26T04:25:02.525Z,0
2017-09-26T04:30:03.352Z,0
2017-09-26T04:35:02.900Z,0
2017-09-26T04:40:03.405Z,0
2017-09-26T04:45:02.794Z,0
2017-09-26T04:50:03.353Z,0
2017-09-26T04:55:02.944Z,0
2017-09-26T05:00:02.501Z,1
2017-09-26T05:05:03.043Z,3
2017-09-26T05:10:02.582Z,8
2017-09-26T05:15:03.074Z,17
2017-09-26T05:20:02.590Z,27
2017-09-26T05:25:03.002Z,48
2017-09-26T05:30:02.499Z,61
2017-09-26T05:35:03.006Z,73
2017-09-26T05:40:02.569Z,93
2017-09-26T05:45:02.962Z,117
2017-09-26T05:50:03.383Z,250
2017-09-26T05:55:02.871Z,302
2017-09-26T06:00:03.399Z,363
2017-09-26T06:05:02.903Z,428
2017-09-26T06:10:02.453Z,455
2017-09-26T06:15:02.870Z,722
2017-09-26T06:20:03.335Z,856
2017-09-26T06:25:02.794Z,984
2017-09-26T06:30:03.304Z,984
2017-09-26T06:35:02.709Z,1000
2017-09-26T06:40:03.236Z,1000
2017-09-26T06:45:02.797Z,1000
2017-09-26T06:50:03.256Z,2000
2017-09-26T06:55:02.668Z,2000
2017-09-26T07:00:03.164Z,2000
2017-09-26T07:05:02.602Z,2000
2017-09-26T07:10:02.998Z,2000
2017-09-26T07:15:02.465Z,2000
2017-09-26T07:20:02.891Z,2000
2017-09-26T07:25:03.284Z,2000
2017-09-26T07:30:03.065Z,3000
2017-09-26T07:35:02.654Z,3000
2017-09-26T07:40:02.709Z,2000
2017-09-26T07:45:02.614Z,2000
2017-09-26T07:50:03.173Z,2000
2017-09-26T07:55:02.585Z,3000
2017-09-26T08:00:03.008Z,4000
2017-09-26T08:05:02.656Z,3000
2017-09-26T08:10:03.130Z,2000
2017-09-26T08:15:02.475Z,2000
2017-09-26T08:20:02.833Z,4000
2017-09-26T08:25:03.182Z,4000
2017-09-26T08:30:02.519Z,3000
2017-09-26T08:35:03.041Z,4000
2017-09-26T08:40:02.629Z,5000
2017-09-26T08:45:03.024Z,5000
2017-09-26T08:50:03.412Z,5000
2017-09-26T08:55:02.901Z,4000
2017-09-26T09:00:03.325Z,4000
2017-09-26T09:05:02.770Z,9000
2017-09-26T09:10:03.196Z,9000
2017-09-26T09:15:02.598Z,9000
2017-09-26T09:20:03.171Z,10000
2017-09-26T09:25:02.452Z,10000
2017-09-26T09:30:02.927Z,8000
2017-09-26T09:35:02.475Z,9000
2017-09-26T09:40:03.006Z,9000
2017-09-26T09:45:02.526Z,8000
2017-09-26T09:50:03.041Z,9000
2017-09-26T09:55:02.536Z,8000
2017-09-26T10:00:02.939Z,9000
2017-09-26T10:05:03.292Z,9000
2017-09-26T10:10:02.820Z,8000
2017-09-26T10:15:03.335Z,8000
2017-09-26T10:20:02.727Z,8000
2017-09-26T10:25:03.092Z,7000
2017-09-26T10:30:02.489Z,8000
2017-09-26T10:35:03.055Z,8000
2017-09-26T10:40:02.673Z,8000
2017-09-26T10:45:03.123Z,8000
2017-09-26T10:50:02.547Z,8000
2017-09-26T10:55:03.150Z,9000
2017-09-26T11:00:02.490Z,8000
2017-09-26T11:05:02.907Z,8000
2017-09-26T11:10:02.483Z,7000
2017-09-26T11:15:02.890Z,7000
2017-09-26T11:20:03.325Z,7000
2017-09-26T11:25:02.737Z,6000
2017-09-26T11:30:03.318Z,5000
2017-09-26T11:35:02.914Z,6000
2017-09-26T11:40:02.603Z,6000
2017-09-26T11:45:03.042Z,6000
2017-09-26T11:50:02.462Z,6000
2017-09-26T11:55:03.007Z,6000
2017-09-26T12:00:03.404Z,6000
2017-09-26T12:05:02.893Z,6000
2017-09-26T12:10:02.530Z,5000
2017-09-26T12:15:03.085Z,5000
2017-09-26T12:20:02.649Z,5000
2017-09-26T12:25:03.112Z,5000
2017-09-26T12:30:02.655Z,5000
2017-09-26T12:35:03.220Z,5000
2017-09-26T12:40:02.842Z,5000
2017-09-26T12:45:03.253Z,5000
2017-09-26T12:50:02.767Z,4000
2017-09-26T12:55:03.312Z,4000
2017-09-26T13:00:02.694Z,4000
2017-09-26T13:05:03.063Z,4000
2017-09-26T13:10:02.564Z,4000
2017-09-26T13:15:03.096Z,4000
2017-09-26T13:20:02.699Z,4000
2017-09-26T13:25:03.196Z,4000
2017-09-26T13:30:02.509Z,4000
2017-09-26T13:35:03.015Z,4000
2017-09-26T13:40:02.634Z,4000
2017-09-26T13:45:03.207Z,4000
2017-09-26T13:50:02.621Z,4000
2017-09-26T13:55:03.174Z,5000
2017-09-26T14:00:02.708Z,5000
2017-09-26T14:05:03.261Z,5000
2017-09-26T14:10:02.904Z,5000
2017-09-26T14:15:03.285Z,5000
2017-09-26T14:20:02.755Z,5000
2017-09-26T14:25:03.287Z,5000
2017-09-26T14:30:02.682Z,5000
2017-09-26T14:35:03.301Z,5000
2017-09-26T14:40:02.943Z,4000
2017-09-26T14:45:02.487Z,4000
2017-09-26T14:50:03.082Z,4000
2017-09-26T14:55:02.637Z,3000
2017-09-26T15:00:03.171Z,3000
2017-09-26T15:05:02.693Z,3000
2017-09-26T15:10:03.268Z,3000
2017-09-26T15:15:02.646Z,3000
2017-09-26T15:20:03.261Z,2000
2017-09-26T15:25:02.615Z,2000
2017-09-26T15:30:03.023Z,2000
2017-09-26T15:35:02.582Z,2000
2017-09-26T15:40:03.042Z,2000
2017-09-26T15:45:02.452Z,1000
2017-09-26T15:50:03.001Z,2000
2017-09-26T15:55:02.541Z,7000
2017-09-26T16:00:03.057Z,2000
2017-09-26T16:05:02.460Z,1000
2017-09-26T16:10:03.060Z,1000
2017-09-26T16:15:02.563Z,1000
2017-09-26T16:20:03.133Z,1000
2017-09-26T16:25:02.672Z,1000
2017-09-26T16:30:03.178Z,1000
2017-09-26T16:35:02.591Z,1000
2017-09-26T16:40:03.175Z,923
2017-09-26T16:45:02.724Z,825
2017-09-26T16:50:03.252Z,728
2017-09-26T16:55:02.629Z,680
2017-09-26T17:00:03.029Z,614
2017-09-26T17:05:02.653Z,533
2017-09-26T17:15:02.661Z,367
2017-09-26T17:20:03.217Z,266
2017-09-26T17:25:02.722Z,136
2017-09-26T17:30:03.276Z,60
2017-09-26T17:35:02.802Z,37
2017-09-26T17:40:03.277Z,19
2017-09-26T17:45:02.779Z,13
2017-09-26T17:50:03.204Z,6
2017-09-26T17:55:02.776Z,2
2017-09-26T18:00:03.326Z,0
2017-09-26T18:05:02.853Z,0
2017-09-26T18:10:03.415Z,0
2017-09-26T18:15:02.838Z,0
2017-09-26T18:20:03.252Z,0
2017-09-26T18:25:02.857Z,0
2017-09-26T18:30:02.438Z,0
2017-09-26T18:35:03.010Z,0
2017-09-26T18:40:02.483Z,0
2017-09-26T18:45:03.102Z,0
2017-09-26T18:50:02.516Z,0
2017-09-26T18:55:02.921Z,0
2017-09-26T19:00:02.477Z,0
2017-09-26T19:05:03.047Z,0
2017-09-26T19:10:02.552Z,0
2017-09-26T19:15:03.147Z,0
2017-09-26T19:20:02.675Z,0
2017-09-26T19:25:03.090Z,0
2017-09-26T19:30:02.470Z,0
2017-09-26T19:35:03.057Z,0
2017-09-26T19:40:02.573Z,0
2017-09-26T19:45:03.175Z,0
2017-09-26T19:50:02.741Z,0
2017-09-26T19:55:03.250Z,0
2017-09-26T20:00:02.604Z,0
2017-09-26T20:05:02.994Z,0
2017-09-26T20:10:02.671Z,0
2017-09-26T20:15:03.223Z,0
2017-09-26T20:20:02.812Z,0
2017-09-26T20:25:03.269Z,0
2017-09-26T20:30:02.780Z,0
2017-09-26T20:35:03.362Z,0
2017-09-26T20:40:03.074Z,0
2017-09-26T20:45:02.406Z,0
2017-09-26T20:50:02.890Z,0
2017-09-26T20:55:03.278Z,0
2017-09-26T21:00:02.649Z,0
2017-09-26T21:05:03.033Z,0
2017-09-26T21:10:02.654Z,0
2017-09-26T21:15:03.191Z,0
2017-09-26T21:20:02.617Z,0
2017-09-26T21:25:03.394Z,0
2017-09-26T21:30:02.960Z,0
2017-09-26T21:35:03.430Z,0
2017-09-26T21:40:03.005Z,0
2017-09-26T21:45:02.421Z,0
2017-09-26T21:50:02.870Z,0
2017-09-26T21:55:03.390Z,0
2017-09-26T22:00:02.747Z,0
2017-09-26T22:05:03.155Z,0
2017-09-26T22:10:02.567Z,0
2017-09-26T22:15:02.955Z,0
2017-09-26T22:20:02.529Z,0
2017-09-26T22:25:03.065Z,0
2017-09-26T22:30:02.484Z,0
2017-09-26T22:35:02.864Z,0
2017-09-26T22:40:02.493Z,0
2017-09-26T22:45:02.891Z,0
2017-09-26T22:50:02.467Z,0
2017-09-26T22:55:02.865Z,0
2017-09-26T23:00:03.845Z,0
2017-09-26T23:10:03.019Z,0
2017-09-26T23:15:03.418Z,0
2017-09-26T23:20:02.953Z,0
2017-09-26T23:25:03.419Z,0
2017-09-26T23:30:02.942Z,0
2017-09-26T23:35:02.563Z,0
2017-09-26T23:40:03.098Z,0
2017-09-26T23:45:02.516Z,0
2017-09-26T23:50:03.123Z,0
2017-09-26T23:55:02.534Z,0
